Flight Track Log - Related Links

Times and Time Zones

All times are in EDT time to prevent confusion due to time zone crossing. See the FFT667 flight status page for this flight to view local times or setup timezone preferences in your user account.

Time Position Orientation Groundspeed Altitude Reporting Facility
EDT Latitude Longitude Course Direction KTS MPH feet Rate Location/Type
Thu 01:04:05 AM 39.9333 -104.6833 270° West 178 205 7,200  Level Denver TRACON
Thu 01:05:05 AM 40.0000 -104.6833 360° North 244 281 8,500 1,800 Climbing Denver TRACON
Thu 01:06:15 AM 40.0800 -104.7039 349° North 295 339 11,100 2,153 Climbing Denver Center
Thu 01:07:16 AM 40.0792 -104.8267 270° West 365 420 13,200 2,430 Climbing Denver Center
Thu 01:08:16 AM 40.0475 -104.9558 252° West 375 432 16,000 2,430 Climbing Denver Center
Thu 01:09:00 AM 39.8500 -105.4262 270° West  Level FlightAware Approximate
Thu 01:09:17 AM 40.0222 -105.0908 256° West 384 442 18,100  Level Denver Center
Thu 01:10:17 AM 40.0075 -105.2469 263° West 402 463 20,600 2,150 Climbing Denver Center
Thu 01:11:17 AM 39.9911 -105.3947 262° West 414 476 22,400 1,534 Climbing Denver Center
Thu 01:12:30 AM 39.9767 -105.5486 263° West 429 494 24,000 1,579 Climbing Denver Center
Thu 01:13:30 AM 39.9567 -105.7317 262° West 445 512 25,900 1,636 Climbing Denver Center
Thu 01:14:31 AM 39.9400 -105.8703 261° West 431 496 27,300 1,339 Climbing Denver Center
Thu 01:15:31 AM 39.9217 -106.0331 262° West 450 518 28,600 1,250 Climbing Denver Center
Thu 01:16:31 AM 39.9039 -106.2000 262° West 464 534 29,800 1,537 Climbing Denver Center
Thu 01:17:32 AM 39.8814 -106.4003 262° West 468 539 31,700 1,686 Climbing Denver Center
Thu 01:18:32 AM 39.8633 -106.5644 262° West 462 532 33,200 1,350 Climbing Denver Center
Thu 01:19:32 AM 39.8439 -106.7269 261° West 459 528 34,400 1,091 Climbing Denver Center
Thu 01:20:33 AM 39.8261 -106.8883 262° West 456 525 35,400 793 Climbing Denver Center
Thu 01:21:33 AM 39.8064 -107.0514 261° West 460 529 36,000 300 Climbing Denver Center
Thu 01:22:33 AM 39.7867 -107.2222 262° West 450 518 36,000  Level Denver Center
Thu 01:23:34 AM 39.7675 -107.3758 261° West 450 518 36,000  Level Denver Center
Thu 01:24:34 AM 39.7481 -107.5317 261° West 457 526 36,000  Level Denver Center
Thu 01:25:34 AM 39.7292 -107.6892 261° West 459 528 36,000  Level Denver Center
Thu 01:26:35 AM 39.7067 -107.8719 261° West 461 531 36,000  Level Denver Center
Thu 01:27:35 AM 39.6856 -108.0281 260° West 458 527 36,000  Level Denver Center
Thu 01:28:35 AM 39.6644 -108.1828 260° West 458 527 36,000  Level Denver Center
Thu 01:29:36 AM 39.6433 -108.3608 261° West 447 514 36,000  Level Denver Center
Thu 01:30:36 AM 39.6231 -108.5142 260° West 447 514 36,000  Level Denver Center
Thu 01:31:36 AM 39.6031 -108.6661 260° West 443 510 36,000  Level Denver Center
Thu 01:32:36 AM 39.5797 -108.8275 259° West 458 527 36,000  Level Denver Center
Thu 01:33:37 AM 39.5600 -108.9806 261° West 447 514 36,000  Level Denver Center
Thu 01:34:37 AM 39.5361 -109.1592 260° West 449 517 36,000 50 Level Denver Center
Thu 01:35:37 AM 39.5144 -109.3142 260° West 455 524 36,100  Climbing Denver Center
Thu 01:36:38 AM 39.4928 -109.4692 260° West 455 524 36,000 -50 Descending Denver Center
Thu 01:37:38 AM 39.4714 -109.6236 260° West 455 524 36,000  Level Denver Center
Thu 01:38:38 AM 39.4464 -109.8008 260° West 449 517 36,000  Level Denver Center
Thu 01:39:39 AM 39.4239 -109.9525 259° West 447 514 36,000  Level Denver Center
Thu 01:40:39 AM 39.4028 -110.1022 260° West 444 511 36,000  Level Denver Center
Thu 01:41:39 AM 39.3769 -110.2767 259° West 442 509 36,000  Level Denver Center
Thu 01:42:40 AM 39.3539 -110.4275 259° West 446 513 36,000  Level Denver Center
Thu 01:43:40 AM 39.3319 -110.5767 259° West 444 511 36,000 45 Level Denver Center
Thu 01:44:52 AM 39.3031 -110.7789 260° West 449 517 36,100  Climbing Salt Lake Center
Thu 01:45:53 AM 39.2792 -110.9289 258° West 447 514 36,000 -50 Descending Salt Lake Center
Thu 01:46:53 AM 39.2561 -111.0792 259° West 447 514 36,000  Level Salt Lake Center
Thu 01:47:54 AM 39.2269 -111.2550 258° West 448 516 36,000  Level Salt Lake Center
Thu 01:48:54 AM 39.2031 -111.4203 259° West 458 527 36,000  Level Salt Lake Center
Thu 01:49:55 AM 39.1769 -111.5781 258° West 454 522 36,000  Level Salt Lake Center
Thu 01:50:55 AM 39.1506 -111.7378 258° West 457 526 36,000  Level Salt Lake Center
Thu 01:51:56 AM 39.1258 -111.8981 259° West 458 527 36,000  Level Salt Lake Center
Thu 01:52:56 AM 39.0994 -112.0569 258° West 457 526 36,000  Level Salt Lake Center
Thu 01:53:57 AM 39.0728 -112.2167 258° West 458 527 36,000  Level Salt Lake Center
Thu 01:54:57 AM 39.0464 -112.3758 258° West 459 528 36,000  Level Salt Lake Center
Thu 01:55:58 AM 39.0192 -112.5350 258° West 458 527 36,000  Level Salt Lake Center
Thu 01:56:58 AM 38.9919 -112.6922 257° West 455 524 36,000  Level Salt Lake Center
Thu 01:57:59 AM 38.9653 -112.8494 258° West 455 524 36,000  Level Salt Lake Center
Thu 01:58:59 AM 38.9378 -113.0061 257° West 453 521 36,000  Level Salt Lake Center
Thu 02:00:00 AM 38.9108 -113.1636 258° West 454 522 36,000 49 Level Salt Lake Center
Thu 02:01:01 AM 38.8831 -113.3222 257° West 455 524 36,100  Climbing Salt Lake Center
Thu 02:02:01 AM 38.8550 -113.4808 257° West 458 527 36,000 -50 Descending Salt Lake Center
Thu 02:03:02 AM 38.8267 -113.6369 257° West 454 522 36,000  Level Salt Lake Center
Thu 02:04:02 AM 38.7983 -113.7939 257° West 454 522 36,000  Level Salt Lake Center
Thu 02:05:03 AM 38.7708 -113.9497 257° West 453 521 36,000  Level Salt Lake Center
Thu 02:06:03 AM 38.7428 -114.1050 257° West 451 519 36,000  Level Salt Lake Center
Thu 02:07:04 AM 38.7072 -114.2925 256° West 454 522 36,000  Level Salt Lake Center
Thu 02:08:04 AM 38.6778 -114.4492 257° West 454 522 36,000  Level Salt Lake Center
Thu 02:09:05 AM 38.6678 -114.6094 265° West 460 529 36,000  Level Salt Lake Center
Thu 02:10:05 AM 38.7286 -114.7444 300° West 449 517 36,000  Level Salt Lake Center
Thu 02:11:05 AM 38.8106 -114.8619 312° West 444 511 36,000  Level Salt Lake Center
Thu 02:12:06 AM 38.8928 -114.9831 311° West 449 517 36,000  Level Salt Lake Center
Thu 02:13:07 AM 38.9681 -115.1108 307° West 450 518 36,000  Level Salt Lake Center
Thu 02:14:07 AM 38.9658 -115.2728 269° West 457 526 36,000  Level Salt Lake Center
Thu 02:15:07 AM 38.9144 -115.4144 245° Southwest 453 521 36,000  Level Salt Lake Center
Thu 02:16:08 AM 38.8611 -115.5597 245° Southwest 451 519 36,000  Level Salt Lake Center
Thu 02:17:09 AM 38.8064 -115.7039 244° Southwest 450 518 36,000  Level Salt Lake Center
Thu 02:18:09 AM 38.7528 -115.8461 244° Southwest 445 512 36,000  Level Salt Lake Center
Thu 02:19:10 AM 38.7011 -115.9836 244° Southwest 432 497 36,000  Level Salt Lake Center
Thu 02:20:10 AM 38.6481 -116.1219 244° Southwest 432 497 36,000  Level Salt Lake Center
Thu 02:21:01 AM 38.6058 -116.2311 244° Southwest 431 496 36,000  Level Oakland Center
Thu 02:22:02 AM 38.5433 -116.3958 244° Southwest 429 494 36,000  Level Oakland Center
Thu 02:23:03 AM 38.4897 -116.5328 243° Southwest 431 496 36,000 49 Level Oakland Center
Thu 02:24:04 AM 38.4364 -116.6714 244° Southwest 434 499 36,100 50 Climbing Oakland Center
Thu 02:25:04 AM 38.3822 -116.8108 244° Southwest 438 504 36,100  Level Oakland Center
Thu 02:26:05 AM 38.3281 -116.9500 244° Southwest 439 505 36,100 -50 Level Oakland Center
Thu 02:27:05 AM 38.2744 -117.0878 244° Southwest 439 505 36,000 -50 Descending Oakland Center
Thu 02:28:06 AM 38.2197 -117.2261 243° Southwest 433 498 36,000  Level Oakland Center
Thu 02:29:07 AM 38.1461 -117.3447 232° Southwest 441 507 36,000  Level Oakland Center
Thu 02:30:07 AM 38.0475 -117.4064 206° Southwest 446 513 36,000  Level Oakland Center
Thu 02:31:08 AM 37.9406 -117.4683 205° Southwest 428 493 36,000  Level Oakland Center
Thu 02:32:09 AM 37.8131 -117.5436 205° Southwest 423 487 36,000  Level Oakland Center
Thu 02:33:09 AM 37.7039 -117.6078 205° Southwest 431 496 36,000 50 Level Oakland Center
Thu 02:34:10 AM 37.6178 -117.7050 222° Southwest 443 510 36,100 49 Climbing Oakland Center
Thu 02:35:11 AM 37.5964 -117.8525 260° West 433 498 36,100 -50 Level Oakland Center
Thu 02:36:11 AM 37.6006 -118.0047 272° West 433 498 36,000 -50 Descending Oakland Center
Thu 02:37:12 AM 37.6033 -118.1586 271° West 437 503 36,000  Level Oakland Center
Thu 02:38:12 AM 37.6064 -118.3117 271° West 436 502 36,000  Level Oakland Center
Thu 02:39:13 AM 37.6094 -118.4636 272° West 434 499 36,000  Level Oakland Center
Thu 02:40:14 AM 37.6128 -118.6181 272° West 437 503 36,000  Level Oakland Center
Thu 02:41:14 AM 37.6150 -118.7714 271° West 436 502 36,000  Level Oakland Center
Thu 02:42:15 AM 37.6192 -118.9211 272° West 437 503 36,000  Level Oakland Center
Thu 02:43:15 AM 37.6197 -119.0753 270° West 438 504 36,000 -298 Level Oakland Center
Thu 02:44:16 AM 37.6186 -119.2314 270° West 444 511 35,400 -787 Descending Oakland Center
Thu 02:45:17 AM 37.6219 -119.3861 272° West 443 510 34,400 -1,041 Descending Oakland Center
Thu 02:46:17 AM 37.6239 -119.5356 271° West 434 499 33,300 -992 Descending Oakland Center
Thu 02:47:18 AM 37.6272 -119.6844 272° West 429 494 32,400 -942 Descending Oakland Center
Thu 02:48:18 AM 37.6275 -119.8306 270° West 423 487 31,400 -1,041 Descending Oakland Center
Thu 02:49:19 AM 37.6256 -119.9769 269° West 417 480 30,300 -1,041 Descending Oakland Center
Thu 02:50:19 AM 37.6264 -120.1189 270° West 409 471 29,300 -992 Descending Oakland Center
Thu 02:51:20 AM 37.6272 -120.2581 270° West 401 461 28,300 -1,328 Descending Oakland Center
Thu 02:52:21 AM 37.6269 -120.3972 270° West 396 456 26,600 -1,686 Descending Oakland Center
Thu 02:53:21 AM 37.6275 -120.5311 270° West 385 443 24,900 -1,835 Descending Oakland Center
Thu 02:54:22 AM 37.6283 -120.6586 271° West 366 421 22,900 -1,785 Descending Oakland Center
Thu 02:55:22 AM 37.6281 -120.7858 270° West 362 417 21,300 -1,686 Descending Oakland Center
Thu 02:56:23 AM 37.6267 -120.9064 269° West 348 400 19,500 -1,686 Descending Oakland Center
Thu 02:57:23 AM 37.6203 -121.0239 266° West 337 388 17,900 -1,587 Descending Oakland Center
Thu 02:58:24 AM 37.6047 -121.1556 262° West 329 379 16,300 -1,537 Descending Oakland Center
Thu 02:59:24 AM 37.5917 -121.2675 262° West 324 373 14,800 -1,488 Descending Oakland Center
Thu 03:00:25 AM 37.5800 -121.3756 262° West 315 362 13,300 -1,388 Descending Oakland Center
Thu 03:01:25 AM 37.5672 -121.4839 262° West 312 359 12,000 -1,140 Descending Oakland Center
Thu 03:02:26 AM 37.5550 -121.5889 262° West 307 353 11,000 -545 Descending Oakland Center
Thu 03:03:26 AM 37.5667 -121.6889 278° West 309 356 10,900 -446 Descending Oakland Center
Thu 03:04:27 AM 37.6136 -121.7733 305° West 295 339 10,100 -496 Descending Oakland Center
Thu 03:05:27 AM 37.6578 -121.8586 303° West 294 338 9,900 -99 Descending Oakland Center
Thu 03:06:28 AM 37.6544 -121.9622 268° West 295 339 9,900 -149 Level Oakland Center
Thu 03:07:28 AM 37.6447 -122.0650 263° West 295 339 9,600 -400 Descending Oakland Center
Thu 03:08:28 AM 37.6011 -122.1181 224° Southwest 263 303 9,100 -347 Descending Oakland Center
Thu 03:09:29 AM 37.5556 -122.0561 133° Southeast 246 283 8,900 -49 Descending Oakland Center
Thu 03:10:30 AM 37.5333 -121.9667 107° East 237 273 9,000 50 Climbing Northern Cal TRACON
Thu 03:11:30 AM 37.5167 -121.8833 104° East 238 274 9,000 -350 Level Northern Cal TRACON
Thu 03:12:30 AM 37.5000 -121.8167 107° East 238 274 8,300 -500 Descending Northern Cal TRACON
Thu 03:13:30 AM 37.4500 -121.7833 152° Southeast 254 292 8,000 -150 Descending Northern Cal TRACON
Thu 03:14:30 AM 37.4167 -121.8500 238° Southwest 238 274 8,000  Level Northern Cal TRACON
Thu 03:15:24 AM 37.4333 -121.9167 287° West 206 237 8,000 -474 Level Northern Cal TRACON
Thu 03:16:24 AM 37.4500 -121.9667 293° West 201 231 7,100 -950 Descending Northern Cal TRACON
Thu 03:17:24 AM 37.4833 -122.0333 302° West 183 211 6,100 -1,200 Descending Northern Cal TRACON
Thu 03:18:24 AM 37.5000 -122.0833 293° West 176 203 4,700 -1,150 Descending Northern Cal TRACON
Thu 03:19:24 AM 37.5167 -122.1333 293° West 169 194 3,800 -900 Descending Northern Cal TRACON
Thu 03:20:24 AM 37.5500 -122.1833 310° West 151 174 2,900 -791 Descending Northern Cal TRACON
Thu 03:21:33 AM 37.5606 -122.2325 285° West 155 178 2,100 -692 Descending Oakland Center
Thu 03:22:34 AM 37.5789 -122.2761 298° West 148 170 1,400 -645 Descending Oakland Center
Thu 03:23:34 AM 37.5953 -122.3136 299° West 136 157 800 -650 Descending Oakland Center
Thu 03:24:34 AM 37.6089 -122.3525 294° West 127 146 100 -700 Descending Oakland Center

Login

Don't have an account? Register now (free) for customized features, flight alerts, and more!